Time;durP1;ratioP1;P1;durP2;ratioP2;P2;SDS_P1;SDS_P2;PMS_P1;PMS_P2;Temp;Humidity;BMP_temperature;BMP_pressure;BME280_temperature;BME280_humidity;BME280_pressure;Samples;Min_cycle;Max_cycle;Signal;HPM_P1;HPM_P2
2021/12/05 00:23:51;;;;;;;1.48;0.90;;;;;;;;;;5021677;28;20194;-90
2021/12/05 00:26:20;;;;;;;2.40;1.10;;;;;;;;;;5023411;28;20229;-89
2021/12/05 00:31:31;;;;;;;1.50;1.20;;;;;;;;;;5019472;28;20269;-89
2021/12/05 00:39:56;;;;;;;1.42;1.10;;;;;;;;;;4953439;29;20212;-90
2021/12/05 00:47:44;;;;;;;2.17;1.10;;;;;;;;;;4957930;29;20181;-90
2021/12/05 00:55:46;;;;;;;2.38;1.23;;;;;;;;;;4948679;29;20192;-89
2021/12/05 01:01:26;;;;;;;1.60;0.90;;;;;;;;;;4947266;29;20467;-89
2021/12/05 01:16:42;;;;;;;1.60;1.00;;;;;;;;;;5004208;28;20179;-88
2021/12/05 01:19:10;;;;;;;1.75;0.93;;;;;;;;;;5002783;28;20190;-89
2021/12/05 01:21:38;;;;;;;2.05;1.17;;;;;;;;;;5001389;28;20209;-89
2021/12/05 01:24:20;;;;;;;1.50;1.05;;;;;;;;;;5001643;28;20537;-90
2021/12/05 01:32:28;;;;;;;1.50;1.00;;;;;;;;;;5003554;28;20210;-89
2021/12/05 01:35:25;;;;;;;1.40;0.90;;;;;;;;;;4998249;28;20183;-92
2021/12/05 01:55:21;;;;;;;2.50;0.90;;;;;;;;;;5003177;28;20191;-89
2021/12/05 02:09:03;;;;;;;4.80;1.30;;;;;;;;;;4965450;28;20198;-87
2021/12/05 02:29:38;;;;;;;2.22;1.10;;;;;;;;;;4963511;28;20212;-88
2021/12/05 02:30:59;;;;;;;1.55;1.20;;;;;;;;;;4965486;29;20199;-89
2021/12/05 02:33:29;;;;;;;1.98;0.90;;;;;;;;;;4963774;28;20203;-90
2021/12/05 02:36:26;;;;;;;1.10;0.80;;;;;;;;;;4953114;29;20196;-90
2021/12/05 02:39:20;;;;;;;1.35;1.00;;;;;;;;;;4936884;29;20260;-89
2021/12/05 02:41:49;;;;;;;1.35;0.80;;;;;;;;;;4977040;28;20210;-89
2021/12/05 02:44:24;;;;;;;2.10;1.20;;;;;;;;;;5003246;28;20270;-90
2021/12/05 02:47:02;;;;;;;1.10;1.00;;;;;;;;;;5005400;28;20205;-89
2021/12/05 02:49:30;;;;;;;1.10;1.00;;;;;;;;;;5004821;28;20659;-91
2021/12/05 02:52:00;;;;;;;1.92;0.80;;;;;;;;;;5003407;28;20201;-91
2021/12/05 02:54:27;;;;;;;1.58;1.33;;;;;;;;;;5003838;28;20198;-87
2021/12/05 02:56:54;;;;;;;1.73;1.10;;;;;;;;;;5004790;28;20194;-90
2021/12/05 02:59:31;;;;;;;3.47;1.23;;;;;;;;;;5003789;28;20187;-90
2021/12/05 03:02:04;;;;;;;4.63;0.98;;;;;;;;;;5005273;28;20679;-90
2021/12/05 03:04:32;;;;;;;1.95;0.88;;;;;;;;;;5005792;28;20179;-91
2021/12/05 03:07:00;;;;;;;1.77;1.10;;;;;;;;;;5007347;28;20209;-93
2021/12/05 03:09:26;;;;;;;1.15;0.70;;;;;;;;;;5004947;28;20194;-90
2021/12/05 03:11:53;;;;;;;3.22;1.13;;;;;;;;;;5007313;28;20189;-90
2021/12/05 03:14:19;;;;;;;1.58;1.05;;;;;;;;;;5023935;28;20188;-91
2021/12/05 03:16:46;;;;;;;2.38;1.05;;;;;;;;;;5026044;28;20183;-91
2021/12/05 03:19:13;;;;;;;1.92;0.90;;;;;;;;;;5006648;28;20190;-92
2021/12/05 03:21:41;;;;;;;2.25;0.80;;;;;;;;;;5007014;28;20206;-90
2021/12/05 03:24:07;;;;;;;0.70;0.70;;;;;;;;;;5006851;28;20190;-90
2021/12/05 03:26:35;;;;;;;4.90;0.93;;;;;;;;;;5022341;28;20183;-91
2021/12/05 03:29:02;;;;;;;1.33;0.80;;;;;;;;;;5023685;28;20171;-91
2021/12/05 03:31:30;;;;;;;5.50;0.88;;;;;;;;;;5007984;28;20178;-91
2021/12/05 03:33:57;;;;;;;1.10;0.73;;;;;;;;;;5005671;28;20213;-88
2021/12/05 03:36:23;;;;;;;4.63;0.90;;;;;;;;;;5006939;28;20190;-89
2021/12/05 03:38:49;;;;;;;1.65;1.35;;;;;;;;;;5022801;28;20190;-87
2021/12/05 03:41:16;;;;;;;2.05;0.68;;;;;;;;;;5001423;28;20203;-90
2021/12/05 03:43:43;;;;;;;1.25;0.70;;;;;;;;;;5003609;28;20186;-94
2021/12/05 03:46:10;;;;;;;1.58;0.90;;;;;;;;;;5006556;28;20189;-92
2021/12/05 03:48:38;;;;;;;2.13;0.98;;;;;;;;;;5005671;28;20178;-92
2021/12/05 03:51:04;;;;;;;0.73;0.70;;;;;;;;;;5006129;28;20197;-91
2021/12/05 03:53:30;;;;;;;2.05;0.68;;;;;;;;;;5003969;28;20215;-91
2021/12/05 03:55:57;;;;;;;1.10;0.60;;;;;;;;;;5006241;28;20182;-89
2021/12/05 03:58:23;;;;;;;2.17;1.05;;;;;;;;;;5006839;28;20187;-92
2021/12/05 04:00:51;;;;;;;1.08;0.70;;;;;;;;;;5021007;28;20237;-89
2021/12/05 04:03:18;;;;;;;0.70;0.57;;;;;;;;;;5022506;28;20182;-92
2021/12/05 04:05:45;;;;;;;1.90;0.70;;;;;;;;;;5005659;28;20222;-90
2021/12/05 04:08:12;;;;;;;0.80;0.60;;;;;;;;;;5004700;28;20175;-90
2021/12/05 04:10:42;;;;;;;0.95;0.70;;;;;;;;;;5007814;28;20175;-92
2021/12/05 04:13:08;;;;;;;0.68;0.50;;;;;;;;;;5006629;28;20190;-90
2021/12/05 04:15:34;;;;;;;0.60;0.60;;;;;;;;;;5021483;28;20198;-92
2021/12/05 04:18:00;;;;;;;1.20;0.70;;;;;;;;;;5006597;28;20197;-90
2021/12/05 04:20:26;;;;;;;3.35;0.70;;;;;;;;;;5004900;28;20206;-92
2021/12/05 04:22:53;;;;;;;4.53;0.80;;;;;;;;;;5007578;28;20178;-87
2021/12/05 04:25:19;;;;;;;1.00;0.80;;;;;;;;;;5006117;28;20182;-90
2021/12/05 04:27:46;;;;;;;1.10;0.80;;;;;;;;;;5006485;28;20189;-90
2021/12/05 04:30:13;;;;;;;1.15;0.80;;;;;;;;;;5005188;28;20206;-89
2021/12/05 04:32:40;;;;;;;0.98;0.70;;;;;;;;;;5006278;28;20250;-91
2021/12/05 04:35:06;;;;;;;1.45;0.75;;;;;;;;;;5023378;28;20182;-92
2021/12/05 04:37:35;;;;;;;2.63;1.10;;;;;;;;;;5007293;28;20189;-92
2021/12/05 04:40:01;;;;;;;3.40;0.90;;;;;;;;;;5006203;28;20221;-91
2021/12/05 04:42:27;;;;;;;4.80;1.25;;;;;;;;;;5020876;28;20182;-93
2021/12/05 04:44:53;;;;;;;1.23;0.70;;;;;;;;;;5005241;28;20201;-91
2021/12/05 04:47:20;;;;;;;1.00;0.65;;;;;;;;;;5020777;28;20183;-88
2021/12/05 04:49:46;;;;;;;1.38;1.08;;;;;;;;;;5006926;28;20198;-93
2021/12/05 04:52:14;;;;;;;1.33;0.75;;;;;;;;;;5004559;28;20649;-87
2021/12/05 04:54:40;;;;;;;0.77;0.68;;;;;;;;;;5005876;28;20216;-91
2021/12/05 04:57:07;;;;;;;3.22;1.08;;;;;;;;;;5005489;28;20186;-89
2021/12/05 04:59:36;;;;;;;2.20;1.05;;;;;;;;;;5002648;28;20190;-88
2021/12/05 05:02:03;;;;;;;1.35;1.17;;;;;;;;;;5005962;28;20609;-91
2021/12/05 05:04:30;;;;;;;1.45;1.17;;;;;;;;;;5023991;28;20174;-90
2021/12/05 05:07:04;;;;;;;1.77;0.80;;;;;;;;;;5019609;28;20246;-89
2021/12/05 05:09:30;;;;;;;3.38;2.15;;;;;;;;;;5005027;28;20189;-91
2021/12/05 05:11:57;;;;;;;2.05;0.82;;;;;;;;;;5005039;28;20328;-92
2021/12/05 05:14:23;;;;;;;2.15;0.88;;;;;;;;;;4989146;28;20194;-89
2021/12/05 05:16:53;;;;;;;3.08;1.23;;;;;;;;;;5005830;28;20174;-89
2021/12/05 05:19:22;;;;;;;1.65;1.00;;;;;;;;;;5006035;28;20205;-89
2021/12/05 05:40:40;;;;;;;2.58;0.90;;;;;;;;;;5023442;28;20216;-87
2021/12/05 05:50:52;;;;;;;1.77;1.10;;;;;;;;;;5022794;28;20190;-89
2021/12/05 05:53:18;;;;;;;1.40;0.88;;;;;;;;;;5007586;28;20191;-85
2021/12/05 05:55:45;;;;;;;3.63;1.42;;;;;;;;;;5010474;28;20185;-89
2021/12/05 05:58:13;;;;;;;3.80;1.27;;;;;;;;;;5021165;28;20245;-89
2021/12/05 06:00:52;;;;;;;5.93;1.90;;;;;;;;;;5008719;28;20679;-90
2021/12/05 06:03:24;;;;;;;2.42;1.30;;;;;;;;;;5009785;28;20209;-88
2021/12/05 06:05:56;;;;;;;3.25;1.00;;;;;;;;;;5009154;28;20225;-91
2021/12/05 06:08:24;;;;;;;4.13;1.35;;;;;;;;;;5006225;28;20193;-87
2021/12/05 06:10:51;;;;;;;4.00;1.35;;;;;;;;;;5009791;28;20253;-90
2021/12/05 06:13:18;;;;;;;3.90;1.10;;;;;;;;;;5007261;28;20190;-87
2021/12/05 06:15:45;;;;;;;2.35;1.02;;;;;;;;;;5008091;28;20632;-87
2021/12/05 06:18:11;;;;;;;1.17;1.08;;;;;;;;;;5007951;28;20190;-87
2021/12/05 06:20:37;;;;;;;1.27;0.98;;;;;;;;;;5023368;28;20300;-90
2021/12/05 06:23:03;;;;;;;3.03;1.73;;;;;;;;;;5007890;28;20179;-90
2021/12/05 06:25:31;;;;;;;8.50;1.15;;;;;;;;;;5008925;28;20178;-88
2021/12/05 06:28:01;;;;;;;1.90;0.80;;;;;;;;;;5007867;28;20182;-89
2021/12/05 06:38:57;;;;;;;2.13;0.90;;;;;;;;;;5008535;28;20237;-91
2021/12/05 06:46:53;;;;;;;2.13;0.80;;;;;;;;;;5022061;28;20193;-88
2021/12/05 06:49:19;;;;;;;3.40;1.30;;;;;;;;;;5007942;28;20178;-89
2021/12/05 06:51:45;;;;;;;5.57;1.27;;;;;;;;;;5021862;28;20197;-85
2021/12/05 06:54:11;;;;;;;1.70;1.05;;;;;;;;;;5006913;28;20197;-87
2021/12/05 06:56:37;;;;;;;3.65;1.10;;;;;;;;;;5007878;28;20209;-88
2021/12/05 06:59:03;;;;;;;2.63;1.20;;;;;;;;;;5006782;28;20174;-89
2021/12/05 07:01:35;;;;;;;2.03;1.38;;;;;;;;;;5007872;28;20202;-91
2021/12/05 07:04:19;;;;;;;3.13;1.40;;;;;;;;;;5002759;28;20186;-92
2021/12/05 07:06:45;;;;;;;2.05;0.90;;;;;;;;;;5002497;28;20278;-88
2021/12/05 07:09:13;;;;;;;3.53;0.95;;;;;;;;;;5003831;28;20187;-94
2021/12/05 07:11:51;;;;;;;4.32;1.10;;;;;;;;;;5002253;28;20284;-93
2021/12/05 07:14:37;;;;;;;1.95;0.93;;;;;;;;;;5002953;28;20199;-92
2021/12/05 07:23:44;;;;;;;2.45;0.98;;;;;;;;;;5005145;28;20296;-92
2021/12/05 07:25:34;;;;;;;2.78;1.02;;;;;;;;;;4997938;28;20282;-91
2021/12/05 07:41:52;;;;;;;1.30;0.90;;;;;;;;;;4989361;28;20217;-86
2021/12/05 07:44:24;;;;;;;1.60;1.17;;;;;;;;;;4986803;28;20269;-94
2021/12/05 07:46:50;;;;;;;2.10;1.00;;;;;;;;;;4998404;28;20172;-89
2021/12/05 07:49:17;;;;;;;8.35;1.40;;;;;;;;;;4998487;28;20194;-88
2021/12/05 07:51:47;;;;;;;2.25;0.93;;;;;;;;;;5001815;28;20187;-87
2021/12/05 07:54:35;;;;;;;4.43;1.80;;;;;;;;;;4991869;28;20275;-87
2021/12/05 07:57:22;;;;;;;6.28;2.30;;;;;;;;;;4987848;28;20188;-88
2021/12/05 08:16:19;;;;;;;2.67;1.20;;;;;;;;;;5013498;28;20250;-89
2021/12/05 08:18:51;;;;;;;3.35;1.90;;;;;;;;;;4998339;28;20191;-92
2021/12/05 08:21:17;;;;;;;3.15;1.52;;;;;;;;;;4993928;28;20210;-88
2021/12/05 08:23:45;;;;;;;4.72;1.75;;;;;;;;;;4990696;28;20278;-89
2021/12/05 08:26:18;;;;;;;3.28;1.65;;;;;;;;;;4998937;28;20339;-85
2021/12/05 08:34:02;;;;;;;10.23;5.05;;;;;;;;;;5020409;28;20651;-84
2021/12/05 09:21:07;;;;;;;7.00;6.32;;;;;;;;;;4939715;29;20189;-90
2021/12/05 09:26:26;;;;;;;4.15;3.75;;;;;;;;;;4956498;29;20203;-84
2021/12/05 09:29:19;;;;;;;8.50;3.55;;;;;;;;;;4945783;29;20177;-91
2021/12/05 09:40:14;;;;;;;3.85;3.22;;;;;;;;;;4952466;29;20196;-93
2021/12/05 10:37:18;;;;;;;2.30;2.10;;;;;;;;;;5023308;28;20194;-90
2021/12/05 10:39:45;;;;;;;4.07;2.63;;;;;;;;;;5007825;28;20493;-88
2021/12/05 10:42:43;;;;;;;4.65;2.97;;;;;;;;;;5007923;28;20209;-94
2021/12/05 10:45:29;;;;;;;6.57;3.75;;;;;;;;;;5008935;28;20183;-90
2021/12/05 10:47:56;;;;;;;6.10;3.75;;;;;;;;;;4996506;28;20191;-90
2021/12/05 10:50:30;;;;;;;4.53;2.90;;;;;;;;;;5008212;28;20189;-90
2021/12/05 10:53:15;;;;;;;5.05;2.67;;;;;;;;;;5001707;28;20179;-92
2021/12/05 10:55:42;;;;;;;2.85;2.35;;;;;;;;;;5003895;28;20175;-89
2021/12/05 10:58:08;;;;;;;4.35;2.33;;;;;;;;;;5001585;28;20215;-90
2021/12/05 11:00:35;;;;;;;4.78;2.22;;;;;;;;;;5000910;28;20233;-89
2021/12/05 11:03:17;;;;;;;4.47;2.80;;;;;;;;;;5004161;28;20544;-92
2021/12/05 11:05:44;;;;;;;5.13;3.20;;;;;;;;;;5007090;28;20215;-87
2021/12/05 11:08:35;;;;;;;6.75;2.90;;;;;;;;;;5007603;28;20221;-92
2021/12/05 11:11:10;;;;;;;4.53;3.05;;;;;;;;;;5004609;28;20183;-93
2021/12/05 11:13:43;;;;;;;4.15;3.75;;;;;;;;;;5024672;28;20205;-94
2021/12/05 11:16:33;;;;;;;3.67;3.38;;;;;;;;;;5007892;28;20183;-94
2021/12/05 11:19:10;;;;;;;7.35;4.90;;;;;;;;;;5008048;28;20198;-93
2021/12/05 11:21:50;;;;;;;4.43;2.92;;;;;;;;;;5009306;28;20198;-93
2021/12/05 11:24:52;;;;;;;3.45;3.15;;;;;;;;;;5008353;28;20218;-95
2021/12/05 11:27:21;;;;;;;3.60;2.40;;;;;;;;;;4935889;29;20192;-92
2021/12/05 11:29:49;;;;;;;5.18;2.42;;;;;;;;;;4941020;29;20201;-89
2021/12/05 11:32:20;;;;;;;4.18;2.33;;;;;;;;;;4931582;29;20197;-89
2021/12/05 11:34:47;;;;;;;2.25;1.90;;;;;;;;;;4943907;29;20238;-89
2021/12/05 11:37:13;;;;;;;4.20;2.30;;;;;;;;;;4931320;29;20276;-85
2021/12/05 11:39:40;;;;;;;4.85;1.65;;;;;;;;;;4928072;29;20232;-87
2021/12/05 11:42:17;;;;;;;10.43;2.15;;;;;;;;;;4928877;29;20733;-85
2021/12/05 11:44:46;;;;;;;11.48;2.95;;;;;;;;;;4927649;29;20208;-84
2021/12/05 11:47:15;;;;;;;8.88;1.77;;;;;;;;;;4923787;29;20192;-91
2021/12/05 11:49:42;;;;;;;6.63;1.55;;;;;;;;;;4954012;29;20209;-90
2021/12/05 11:52:09;;;;;;;2.00;1.00;;;;;;;;;;4939852;29;20351;-91
2021/12/05 11:54:40;;;;;;;3.45;1.35;;;;;;;;;;4935235;29;20211;-90
2021/12/05 11:57:06;;;;;;;2.75;1.00;;;;;;;;;;4966106;28;20190;-89
2021/12/05 11:59:33;;;;;;;1.83;1.65;;;;;;;;;;5006187;28;20178;-88
2021/12/05 12:02:10;;;;;;;1.98;0.95;;;;;;;;;;5024063;28;20206;-91
2021/12/05 12:04:42;;;;;;;1.52;1.20;;;;;;;;;;5024702;28;20234;-91
2021/12/05 12:07:11;;;;;;;4.60;1.77;;;;;;;;;;5004959;28;20197;-90
2021/12/05 12:09:37;;;;;;;2.78;1.60;;;;;;;;;;5002093;28;20186;-91
2021/12/05 12:12:03;;;;;;;1.88;1.45;;;;;;;;;;5006053;28;20210;-90
2021/12/05 12:14:30;;;;;;;1.90;1.65;;;;;;;;;;5002736;28;20209;-90
2021/12/05 12:16:57;;;;;;;2.08;1.65;;;;;;;;;;5001152;28;20275;-92
2021/12/05 12:19:23;;;;;;;2.00;1.70;;;;;;;;;;5003370;28;20644;-91
2021/12/05 12:21:52;;;;;;;2.40;1.52;;;;;;;;;;5005552;28;20217;-91
2021/12/05 12:24:18;;;;;;;2.75;1.50;;;;;;;;;;5002209;28;20205;-90
2021/12/05 12:26:45;;;;;;;2.05;1.88;;;;;;;;;;5007649;28;20255;-90
2021/12/05 12:29:12;;;;;;;1.75;1.50;;;;;;;;;;4995072;28;20175;-92
2021/12/05 12:31:40;;;;;;;2.22;1.70;;;;;;;;;;5002504;28;20182;-91
2021/12/05 12:34:12;;;;;;;2.03;1.60;;;;;;;;;;5006054;28;20257;-92
2021/12/05 12:36:41;;;;;;;3.00;1.63;;;;;;;;;;5005406;28;20178;-93
2021/12/05 12:39:27;;;;;;;3.85;2.63;;;;;;;;;;4999382;28;20221;-92
2021/12/05 12:42:13;;;;;;;3.30;2.38;;;;;;;;;;4997652;28;20229;-91
2021/12/05 12:44:58;;;;;;;2.70;2.10;;;;;;;;;;4994347;28;20182;-94
2021/12/05 12:47:31;;;;;;;2.40;2.20;;;;;;;;;;4999028;28;20179;-95
2021/12/05 12:50:17;;;;;;;4.90;3.83;;;;;;;;;;5014097;28;20174;-93
2021/12/05 12:53:16;;;;;;;3.45;2.55;;;;;;;;;;5022778;28;20194;-92
2021/12/05 12:55:44;;;;;;;2.40;2.20;;;;;;;;;;4929453;29;20193;-94
2021/12/05 12:58:12;;;;;;;3.30;2.67;;;;;;;;;;4932392;29;20384;-91
2021/12/05 13:00:41;;;;;;;3.10;1.92;;;;;;;;;;4916657;29;20209;-94
2021/12/05 13:03:26;;;;;;;2.42;2.17;;;;;;;;;;4910500;29;20185;-87
2021/12/05 13:11:07;;;;;;;3.75;2.53;;;;;;;;;;4929413;29;20201;-93
2021/12/05 13:13:36;;;;;;;3.15;2.72;;;;;;;;;;4927716;29;20219;-92
2021/12/05 13:16:26;;;;;;;3.45;2.58;;;;;;;;;;4916643;29;20193;-91
2021/12/05 13:18:57;;;;;;;2.13;1.85;;;;;;;;;;4928842;29;20213;-92
2021/12/05 13:21:31;;;;;;;6.13;2.03;;;;;;;;;;4932324;29;20220;-91
2021/12/05 13:23:57;;;;;;;5.95;2.33;;;;;;;;;;4930627;29;20203;-90
2021/12/05 13:26:38;;;;;;;7.57;3.30;;;;;;;;;;4917140;29;20178;-91
2021/12/05 13:29:17;;;;;;;4.00;1.65;;;;;;;;;;4921167;29;20274;-91
2021/12/05 13:31:45;;;;;;;4.22;3.00;;;;;;;;;;4974992;28;20214;-90
2021/12/05 13:34:28;;;;;;;2.00;1.80;;;;;;;;;;5003663;28;20194;-92
2021/12/05 13:37:08;;;;;;;2.38;2.17;;;;;;;;;;5004924;28;20190;-91
2021/12/05 13:39:37;;;;;;;4.00;2.63;;;;;;;;;;5004895;28;20217;-88
2021/12/05 13:42:21;;;;;;;2.95;2.33;;;;;;;;;;5005445;28;20213;-92
2021/12/05 13:44:59;;;;;;;4.70;2.78;;;;;;;;;;5008503;28;20655;-91
2021/12/05 13:47:32;;;;;;;3.20;2.20;;;;;;;;;;4994657;28;20182;-88
2021/12/05 13:52:49;;;;;;;3.42;2.00;;;;;;;;;;5019411;28;20198;-90
2021/12/05 13:55:37;;;;;;;3.77;3.17;;;;;;;;;;5003351;28;20194;-88
2021/12/05 13:58:15;;;;;;;2.13;1.75;;;;;;;;;;5000616;28;20483;-85
2021/12/05 14:00:44;;;;;;;2.20;2.00;;;;;;;;;;5000404;28;20266;-86
2021/12/05 14:03:10;;;;;;;3.53;2.60;;;;;;;;;;5004446;28;20186;-88
2021/12/05 14:05:36;;;;;;;2.30;2.00;;;;;;;;;;5002624;28;20215;-88
2021/12/05 14:08:02;;;;;;;3.65;3.35;;;;;;;;;;5004816;28;20179;-90
2021/12/05 14:10:42;;;;;;;2.85;1.80;;;;;;;;;;5001247;28;20611;-88
2021/12/05 14:13:08;;;;;;;3.42;2.97;;;;;;;;;;5005642;28;20182;-89
2021/12/05 14:15:34;;;;;;;5.40;4.75;;;;;;;;;;5000891;28;20199;-89
2021/12/05 14:18:00;;;;;;;7.13;2.60;;;;;;;;;;5003494;28;20191;-89
2021/12/05 14:20:27;;;;;;;4.70;4.25;;;;;;;;;;5003422;28;20180;-90
2021/12/05 14:22:56;;;;;;;5.85;3.08;;;;;;;;;;5006196;28;20183;-90
2021/12/05 14:25:23;;;;;;;4.68;3.70;;;;;;;;;;5004428;28;20207;-90
2021/12/05 14:27:51;;;;;;;4.30;3.08;;;;;;;;;;5004265;28;20187;-90
2021/12/05 14:30:20;;;;;;;3.00;2.20;;;;;;;;;;5004984;28;20237;-91
2021/12/05 14:32:47;;;;;;;4.32;2.97;;;;;;;;;;5004404;28;20211;-88
2021/12/05 14:35:16;;;;;;;6.78;3.05;;;;;;;;;;5003293;28;20179;-88
2021/12/05 14:37:44;;;;;;;4.63;2.95;;;;;;;;;;5005759;28;20172;-88
2021/12/05 14:40:21;;;;;;;2.58;2.38;;;;;;;;;;5002852;28;20191;-90
2021/12/05 14:42:49;;;;;;;2.60;2.35;;;;;;;;;;5004545;28;20183;-88
2021/12/05 14:45:17;;;;;;;2.75;2.45;;;;;;;;;;5004118;28;20198;-88
2021/12/05 14:47:44;;;;;;;4.10;1.80;;;;;;;;;;5002394;28;20188;-90
2021/12/05 14:50:12;;;;;;;5.13;2.38;;;;;;;;;;5001849;28;20175;-88
2021/12/05 14:52:40;;;;;;;2.80;2.55;;;;;;;;;;5006014;28;20225;-87
2021/12/05 14:55:08;;;;;;;3.90;2.42;;;;;;;;;;5001343;28;20198;-88
2021/12/05 14:57:39;;;;;;;3.72;2.80;;;;;;;;;;5003900;28;20179;-88
2021/12/05 15:00:05;;;;;;;3.33;2.55;;;;;;;;;;5003946;28;20259;-87
2021/12/05 15:02:31;;;;;;;5.53;3.17;;;;;;;;;;5002654;28;20246;-88
2021/12/05 15:04:57;;;;;;;2.80;2.60;;;;;;;;;;5004235;28;20211;-87
2021/12/05 15:07:24;;;;;;;3.88;2.80;;;;;;;;;;5004435;28;20199;-87
2021/12/05 15:09:53;;;;;;;4.55;3.70;;;;;;;;;;5003217;28;20321;-86
2021/12/05 15:12:37;;;;;;;3.65;3.05;;;;;;;;;;5002993;28;20198;-88
2021/12/05 15:15:13;;;;;;;4.53;3.55;;;;;;;;;;5003624;28;20229;-90
2021/12/05 15:17:40;;;;;;;4.75;3.13;;;;;;;;;;5003625;28;20186;-87
2021/12/05 15:20:10;;;;;;;3.50;3.20;;;;;;;;;;5003047;28;20179;-88
2021/12/05 15:22:37;;;;;;;3.08;2.67;;;;;;;;;;5001999;28;20203;-89
2021/12/05 15:25:05;;;;;;;3.90;3.10;;;;;;;;;;5002202;28;20231;-89
2021/12/05 15:27:32;;;;;;;4.10;3.65;;;;;;;;;;5003276;28;20179;-87
2021/12/05 15:29:59;;;;;;;3.80;2.85;;;;;;;;;;5004537;28;20671;-87
2021/12/05 15:32:27;;;;;;;4.32;2.70;;;;;;;;;;4994101;28;20191;-89
2021/12/05 15:34:55;;;;;;;4.50;4.15;;;;;;;;;;4989344;28;20187;-90
2021/12/05 15:37:24;;;;;;;8.65;4.65;;;;;;;;;;5004068;28;20187;-90
2021/12/05 15:39:51;;;;;;;12.30;6.97;;;;;;;;;;5000524;28;20258;-89
2021/12/05 15:42:23;;;;;;;4.75;3.10;;;;;;;;;;5003648;28;20226;-88
2021/12/05 15:44:50;;;;;;;4.32;2.90;;;;;;;;;;5001956;28;20187;-88
2021/12/05 15:47:37;;;;;;;4.35;3.15;;;;;;;;;;5000209;28;20250;-89
2021/12/05 15:50:09;;;;;;;4.43;3.22;;;;;;;;;;5001289;28;20234;-88
2021/12/05 15:52:38;;;;;;;4.80;3.38;;;;;;;;;;5003888;28;20186;-89
2021/12/05 15:55:07;;;;;;;5.28;3.33;;;;;;;;;;5002310;28;20604;-88
2021/12/05 15:57:35;;;;;;;4.15;2.92;;;;;;;;;;5003354;28;20183;-90
2021/12/05 16:00:05;;;;;;;5.93;4.53;;;;;;;;;;5003489;28;20660;-89
2021/12/05 16:02:31;;;;;;;4.75;3.33;;;;;;;;;;5003286;28;20218;-89
2021/12/05 16:04:57;;;;;;;5.97;3.80;;;;;;;;;;5002962;28;20720;-86
2021/12/05 16:07:28;;;;;;;5.28;4.07;;;;;;;;;;5000943;28;20183;-90
2021/12/05 16:10:07;;;;;;;4.03;3.63;;;;;;;;;;5001027;28;20179;-88
2021/12/05 16:12:37;;;;;;;4.05;3.63;;;;;;;;;;5002639;28;20213;-93
2021/12/05 16:15:03;;;;;;;9.68;6.70;;;;;;;;;;5003091;28;20191;-90
2021/12/05 16:17:30;;;;;;;4.53;4.13;;;;;;;;;;5002561;28;20186;-90
2021/12/05 16:20:07;;;;;;;9.27;5.55;;;;;;;;;;5004932;28;20197;-88
2021/12/05 16:22:33;;;;;;;5.82;4.80;;;;;;;;;;5002924;28;20230;-89
2021/12/05 16:25:15;;;;;;;12.55;10.27;;;;;;;;;;5002562;28;20197;-89
2021/12/05 16:27:48;;;;;;;4.50;3.58;;;;;;;;;;5003446;28;20198;-90
2021/12/05 16:30:21;;;;;;;4.57;4.00;;;;;;;;;;5002932;28;20187;-89
2021/12/05 16:32:47;;;;;;;5.30;3.97;;;;;;;;;;5002685;28;20187;-90
2021/12/05 16:35:24;;;;;;;7.00;3.70;;;;;;;;;;5000633;28;20190;-87
2021/12/05 16:37:50;;;;;;;8.02;5.53;;;;;;;;;;5004485;28;20175;-88
2021/12/05 16:40:16;;;;;;;4.25;3.85;;;;;;;;;;5002385;28;20199;-89
2021/12/05 16:42:44;;;;;;;6.50;4.80;;;;;;;;;;5002436;28;20182;-88
2021/12/05 16:45:11;;;;;;;5.30;4.80;;;;;;;;;;5002219;28;20187;-89
2021/12/05 16:47:37;;;;;;;6.38;5.03;;;;;;;;;;5001487;28;20171;-89
2021/12/05 16:50:04;;;;;;;4.53;4.13;;;;;;;;;;5003026;28;20278;-87
2021/12/05 16:52:32;;;;;;;7.25;4.88;;;;;;;;;;5003934;28;20179;-90
2021/12/05 16:55:03;;;;;;;9.38;6.45;;;;;;;;;;5002412;28;20190;-91
2021/12/05 16:57:39;;;;;;;6.80;5.05;;;;;;;;;;5002511;28;20179;-89
2021/12/05 17:00:10;;;;;;;6.97;4.97;;;;;;;;;;5000444;28;20210;-90
2021/12/05 17:03:07;;;;;;;9.77;5.90;;;;;;;;;;5002229;28;20211;-90
2021/12/05 17:05:44;;;;;;;34.83;27.05;;;;;;;;;;4969125;28;20685;-89
2021/12/05 17:08:13;;;;;;;6.00;5.40;;;;;;;;;;5000368;28;20540;-89
2021/12/05 17:10:44;;;;;;;6.50;5.85;;;;;;;;;;5002259;28;20175;-90
2021/12/05 17:13:12;;;;;;;9.18;7.30;;;;;;;;;;5002954;28;20195;-92
2021/12/05 17:15:50;;;;;;;7.45;6.40;;;;;;;;;;4999417;28;20191;-89
2021/12/05 17:18:17;;;;;;;13.07;10.25;;;;;;;;;;5005179;28;20205;-88
2021/12/05 17:20:46;;;;;;;91.05;58.72;;;;;;;;;;5006322;28;20257;-90
2021/12/05 17:23:18;;;;;;;10.10;7.82;;;;;;;;;;5005236;28;20183;-88
2021/12/05 17:25:49;;;;;;;8.95;6.47;;;;;;;;;;5007892;28;20210;-89
2021/12/05 17:28:36;;;;;;;80.78;42.60;;;;;;;;;;5006716;28;20660;-88
2021/12/05 17:31:05;;;;;;;46.80;23.52;;;;;;;;;;5003715;28;20183;-91
2021/12/05 17:33:36;;;;;;;92.63;48.47;;;;;;;;;;5014531;28;20191;-89
2021/12/05 17:36:14;;;;;;;73.45;42.30;;;;;;;;;;5009493;28;20237;-90
2021/12/05 17:38:40;;;;;;;75.20;37.58;;;;;;;;;;5006140;28;20179;-91
2021/12/05 17:41:06;;;;;;;158.43;88.57;;;;;;;;;;5004757;28;20214;-92
2021/12/05 17:43:32;;;;;;;33.35;21.02;;;;;;;;;;5008805;28;20179;-90
2021/12/05 17:45:58;;;;;;;29.17;23.38;;;;;;;;;;5005417;28;20195;-89
2021/12/05 17:48:24;;;;;;;10.30;7.70;;;;;;;;;;5005549;28;20207;-87
2021/12/05 17:50:55;;;;;;;10.60;9.15;;;;;;;;;;5006435;28;20175;-89
2021/12/05 17:53:21;;;;;;;9.35;8.27;;;;;;;;;;5004701;28;20187;-87
2021/12/05 17:55:48;;;;;;;15.32;11.05;;;;;;;;;;4999299;28;20188;-86
2021/12/05 17:58:40;;;;;;;15.50;9.98;;;;;;;;;;5002158;28;20187;-87
2021/12/05 18:03:52;;;;;;;11.57;8.43;;;;;;;;;;5002953;28;20222;-87
2021/12/05 18:06:21;;;;;;;11.63;8.00;;;;;;;;;;4937915;28;20256;-87
2021/12/05 18:08:47;;;;;;;8.05;7.05;;;;;;;;;;4942476;29;20194;-89
2021/12/05 18:11:20;;;;;;;11.63;10.45;;;;;;;;;;4945647;29;20181;-88
2021/12/05 18:13:50;;;;;;;8.65;7.85;;;;;;;;;;4948516;29;20210;-87
2021/12/05 18:16:23;;;;;;;9.57;8.57;;;;;;;;;;4946238;29;20268;-87
2021/12/05 18:18:49;;;;;;;13.48;11.63;;;;;;;;;;4943982;29;20213;-86
2021/12/05 18:21:15;;;;;;;12.82;11.57;;;;;;;;;;4943130;29;20276;-90
2021/12/05 18:23:41;;;;;;;13.40;10.68;;;;;;;;;;4944467;29;20773;-88
2021/12/05 18:26:07;;;;;;;25.10;23.27;;;;;;;;;;4946118;29;20185;-90
2021/12/05 18:28:35;;;;;;;29.45;27.50;;;;;;;;;;4944905;29;20184;-90
2021/12/05 18:31:02;;;;;;;15.20;13.43;;;;;;;;;;4946062;29;20185;-88
2021/12/05 18:33:30;;;;;;;29.92;27.70;;;;;;;;;;4946777;29;20217;-89
2021/12/05 18:35:56;;;;;;;12.15;10.45;;;;;;;;;;4942916;29;20560;-88
2021/12/05 18:38:25;;;;;;;11.68;9.18;;;;;;;;;;4946866;29;20181;-90
2021/12/05 18:40:54;;;;;;;13.85;12.55;;;;;;;;;;4947361;29;20220;-87
2021/12/05 18:43:24;;;;;;;9.88;8.75;;;;;;;;;;4945087;29;20177;-88
2021/12/05 18:45:51;;;;;;;12.85;11.82;;;;;;;;;;4946932;29;20339;-87
2021/12/05 18:48:17;;;;;;;7.30;5.70;;;;;;;;;;4946714;29;20238;-88
2021/12/05 18:50:43;;;;;;;12.38;7.60;;;;;;;;;;4944598;29;20185;-89
2021/12/05 18:53:12;;;;;;;8.38;6.80;;;;;;;;;;4945942;29;20185;-91
2021/12/05 18:55:38;;;;;;;7.93;7.15;;;;;;;;;;4945683;29;20178;-91
2021/12/05 18:58:08;;;;;;;6.15;5.55;;;;;;;;;;4947073;29;20204;-92
2021/12/05 19:06:11;;;;;;;4.55;4.15;;;;;;;;;;4961574;28;20231;-91
2021/12/05 19:09:03;;;;;;;6.90;5.30;;;;;;;;;;4967261;29;20196;-91
2021/12/05 19:14:08;;;;;;;8.10;3.75;;;;;;;;;;4965013;28;20195;-92
2021/12/05 19:16:34;;;;;;;6.10;4.80;;;;;;;;;;4948487;29;20258;-89
2021/12/05 19:19:03;;;;;;;6.78;5.30;;;;;;;;;;4954159;29;20196;-91
2021/12/05 19:21:29;;;;;;;10.48;5.05;;;;;;;;;;4947514;29;20200;-89
2021/12/05 19:23:57;;;;;;;7.45;4.95;;;;;;;;;;4945761;29;20267;-91
2021/12/05 19:26:24;;;;;;;7.25;5.28;;;;;;;;;;4948577;29;20189;-90
2021/12/05 19:28:50;;;;;;;8.38;5.30;;;;;;;;;;4951048;29;20173;-90
2021/12/05 19:31:16;;;;;;;7.13;5.15;;;;;;;;;;4946703;29;20288;-89
2021/12/05 19:33:43;;;;;;;11.73;5.13;;;;;;;;;;4946794;29;20185;-92
2021/12/05 19:36:14;;;;;;;5.20;4.40;;;;;;;;;;4946652;29;20268;-90
2021/12/05 19:38:40;;;;;;;7.22;4.18;;;;;;;;;;4948127;29;20177;-91
2021/12/05 19:41:06;;;;;;;6.72;4.45;;;;;;;;;;4965576;28;20197;-89
2021/12/05 19:43:33;;;;;;;5.93;5.18;;;;;;;;;;4946011;29;20181;-89
2021/12/05 19:46:00;;;;;;;11.45;7.75;;;;;;;;;;4944107;29;20188;-89
2021/12/05 19:48:26;;;;;;;9.35;5.90;;;;;;;;;;4964284;29;20215;-91
2021/12/05 19:50:52;;;;;;;9.55;5.05;;;;;;;;;;4946216;29;20192;-90
2021/12/05 19:53:18;;;;;;;6.60;4.00;;;;;;;;;;4966556;28;20259;-91
2021/12/05 19:55:45;;;;;;;7.07;4.50;;;;;;;;;;4966140;29;20204;-90
2021/12/05 19:58:11;;;;;;;5.53;4.55;;;;;;;;;;4946486;29;20255;-90
2021/12/05 20:00:38;;;;;;;4.53;4.05;;;;;;;;;;4944963;29;20189;-89
2021/12/05 20:03:04;;;;;;;5.97;4.32;;;;;;;;;;4964910;29;20208;-90
2021/12/05 20:05:32;;;;;;;7.20;4.80;;;;;;;;;;4945709;29;20220;-91
2021/12/05 20:07:58;;;;;;;7.13;3.75;;;;;;;;;;4948681;28;20172;-91
2021/12/05 20:10:27;;;;;;;7.72;4.10;;;;;;;;;;4966402;29;20212;-90
2021/12/05 20:12:54;;;;;;;6.05;3.63;;;;;;;;;;4946243;29;20275;-90
2021/12/05 20:15:21;;;;;;;8.38;4.13;;;;;;;;;;4945815;29;20192;-92
2021/12/05 20:17:49;;;;;;;12.07;8.40;;;;;;;;;;4944699;29;23581;-90
2021/12/05 20:20:17;;;;;;;5.63;3.80;;;;;;;;;;4948279;28;20180;-92